SAS1817 ESSA-EFHK
Flight info
| Callsign | SAS1817 |
|---|---|
| Flight time | 0h 36m |
| Altitude | 27000 |
| Route | TOVRI6G TOVRI N851 RIKUM DCT RIRIP Y364 LAKUT LAKUT8M |
| Aircraft | A320/M-SDE3FGHIRWY/LB1 |
Departure
| Time | 2026-05-07 16:57 |
|---|---|
| Airport | Stockholm-Arlanda Airport (ESSA) |
Arrival
| Time | 2026-05-07 17:33 |
|---|---|
| Airport | Helsinki Vantaa Airport (EFHK) |
| Time | Latitude | Longitude | Altitude | Speed | Heading |
|---|---|---|---|---|---|
| 2026-05-07 16:43 | 59.65283 | 17.93174 | 110 ft | 0 kts | 251° |
| 2026-05-07 16:49 | 59.65288 | 17.93200 | 110 ft | 2 kts | 251° |
| 2026-05-07 16:49 | 59.65293 | 17.93232 | 111 ft | 2 kts | 251° |
| 2026-05-07 16:49 | 59.65299 | 17.93264 | 109 ft | 2 kts | 261° |
| 2026-05-07 16:50 | 59.65296 | 17.93295 | 110 ft | 2 kts | 332° |
| 2026-05-07 16:50 | 59.65293 | 17.93299 | 110 ft | 0 kts | 342° |
| 2026-05-07 16:51 | 59.65309 | 17.93289 | 110 ft | 7 kts | 342° |
| 2026-05-07 16:51 | 59.65404 | 17.93232 | 112 ft | 17 kts | 343° |
| 2026-05-07 16:52 | 59.65500 | 17.93132 | 112 ft | 15 kts | 295° |
| 2026-05-07 16:52 | 59.65484 | 17.92948 | 111 ft | 13 kts | 250° |
| 2026-05-07 16:52 | 59.65454 | 17.92789 | 112 ft | 12 kts | 247° |
| 2026-05-07 16:52 | 59.65475 | 17.92574 | 107 ft | 27 kts | 327° |
| 2026-05-07 16:53 | 59.65670 | 17.92459 | 103 ft | 30 kts | 346° |
| 2026-05-07 16:53 | 59.65876 | 17.92463 | 107 ft | 30 kts | 11° |
| 2026-05-07 16:53 | 59.66077 | 17.92536 | 111 ft | 29 kts | 9° |
| 2026-05-07 16:53 | 59.66274 | 17.92605 | 116 ft | 28 kts | 10° |
| 2026-05-07 16:54 | 59.66458 | 17.92653 | 121 ft | 25 kts | 351° |
| 2026-05-07 16:54 | 59.66609 | 17.92522 | 124 ft | 20 kts | 304° |
| 2026-05-07 16:54 | 59.66560 | 17.92348 | 121 ft | 15 kts | 191° |
| 2026-05-07 16:54 | 59.66553 | 17.92346 | 123 ft | 0 kts | 190° |
| 2026-05-07 16:56 | 59.66521 | 17.92334 | 123 ft | 28 kts | 191° |
| 2026-05-07 16:56 | 59.66072 | 17.92171 | 119 ft | 99 kts | 190° |
| 2026-05-07 16:56 | 59.64092 | 17.91437 | 573 ft | 161 kts | 190° |
| 2026-05-07 16:57 | 59.62992 | 17.91020 | 1319 ft | 162 kts | 190° |
| 2026-05-07 16:57 | 59.61814 | 17.90655 | 1769 ft | 182 kts | 186° |
| 2026-05-07 16:57 | 59.60474 | 17.90452 | 2118 ft | 205 kts | 183° |
| 2026-05-07 16:57 | 59.59018 | 17.90293 | 2825 ft | 212 kts | 183° |
| 2026-05-07 16:58 | 59.57526 | 17.90283 | 3541 ft | 223 kts | 172° |
| 2026-05-07 16:58 | 59.56037 | 17.91533 | 3948 ft | 248 kts | 139° |
| 2026-05-07 16:58 | 59.55104 | 17.94474 | 4514 ft | 264 kts | 101° |
| 2026-05-07 16:58 | 59.55229 | 17.98069 | 5298 ft | 268 kts | 66° |
| 2026-05-07 16:59 | 59.56072 | 18.01367 | 6201 ft | 270 kts | 58° |
| 2026-05-07 16:59 | 59.57039 | 18.04564 | 7119 ft | 273 kts | 56° |
| 2026-05-07 16:59 | 59.58054 | 18.07767 | 7979 ft | 278 kts | 55° |
| 2026-05-07 16:59 | 59.59088 | 18.11026 | 8814 ft | 283 kts | 55° |
| 2026-05-07 17:00 | 59.60132 | 18.14365 | 9656 ft | 289 kts | 55° |
| 2026-05-07 17:00 | 59.61183 | 18.17786 | 10425 ft | 296 kts | 55° |
| 2026-05-07 17:00 | 59.62281 | 18.21407 | 10744 ft | 319 kts | 56° |
| 2026-05-07 17:00 | 59.63458 | 18.25314 | 11000 ft | 343 kts | 56° |
| 2026-05-07 17:01 | 59.64714 | 18.29503 | 11176 ft | 365 kts | 56° |
| 2026-05-07 17:01 | 59.66038 | 18.33934 | 11522 ft | 380 kts | 57° |
| 2026-05-07 17:01 | 59.67388 | 18.38483 | 12131 ft | 387 kts | 57° |
| 2026-05-07 17:01 | 59.68752 | 18.43105 | 12783 ft | 392 kts | 57° |
| 2026-05-07 17:02 | 59.70132 | 18.47803 | 13414 ft | 397 kts | 57° |
| 2026-05-07 17:02 | 59.71531 | 18.52560 | 14023 ft | 402 kts | 57° |
| 2026-05-07 17:02 | 59.72952 | 18.57375 | 14601 ft | 407 kts | 56° |
| 2026-05-07 17:02 | 59.74386 | 18.62237 | 15142 ft | 411 kts | 56° |
| 2026-05-07 17:03 | 59.75836 | 18.67164 | 15678 ft | 416 kts | 56° |
| 2026-05-07 17:03 | 59.77281 | 18.72081 | 16161 ft | 420 kts | 57° |
| 2026-05-07 17:03 | 59.78757 | 18.77126 | 16669 ft | 425 kts | 57° |
| 2026-05-07 17:03 | 59.80245 | 18.82236 | 17168 ft | 430 kts | 57° |
| 2026-05-07 17:04 | 59.81743 | 18.87402 | 17646 ft | 434 kts | 57° |
| 2026-05-07 17:04 | 59.83258 | 18.92640 | 18137 ft | 439 kts | 57° |
| 2026-05-07 17:04 | 59.84787 | 18.97929 | 18591 ft | 443 kts | 57° |
| 2026-05-07 17:04 | 59.86333 | 19.03265 | 19007 ft | 447 kts | 57° |
| 2026-05-07 17:05 | 59.87894 | 19.08651 | 19425 ft | 451 kts | 57° |
| 2026-05-07 17:05 | 59.89461 | 19.14078 | 19825 ft | 454 kts | 57° |
| 2026-05-07 17:05 | 59.91036 | 19.19559 | 20260 ft | 458 kts | 57° |
| 2026-05-07 17:05 | 59.92621 | 19.25100 | 20671 ft | 461 kts | 57° |
| 2026-05-07 17:06 | 59.94210 | 19.30684 | 21088 ft | 466 kts | 57° |
| 2026-05-07 17:06 | 59.95812 | 19.36328 | 21455 ft | 470 kts | 57° |
| 2026-05-07 17:06 | 59.97177 | 19.42313 | 21829 ft | 478 kts | 68° |
| 2026-05-07 17:06 | 59.98074 | 19.48738 | 22189 ft | 483 kts | 74° |
| 2026-05-07 17:07 | 59.98870 | 19.55278 | 22555 ft | 486 kts | 74° |
| 2026-05-07 17:07 | 59.99667 | 19.61856 | 22921 ft | 489 kts | 75° |
| 2026-05-07 17:07 | 60.00465 | 19.68486 | 23286 ft | 492 kts | 75° |
| 2026-05-07 17:07 | 60.01268 | 19.75154 | 23668 ft | 495 kts | 75° |
| 2026-05-07 17:08 | 60.02074 | 19.81877 | 23973 ft | 498 kts | 75° |
| 2026-05-07 17:08 | 60.02882 | 19.88626 | 24280 ft | 501 kts | 75° |
| 2026-05-07 17:08 | 60.03691 | 19.95415 | 24587 ft | 503 kts | 75° |
| 2026-05-07 17:08 | 60.04496 | 20.02239 | 24878 ft | 505 kts | 75° |
| 2026-05-07 17:09 | 60.05297 | 20.09099 | 25166 ft | 507 kts | 75° |
| 2026-05-07 17:09 | 60.06101 | 20.15993 | 25448 ft | 509 kts | 75° |
| 2026-05-07 17:09 | 60.06904 | 20.22908 | 25725 ft | 511 kts | 75° |
| 2026-05-07 17:09 | 60.07709 | 20.29867 | 25999 ft | 514 kts | 75° |
| 2026-05-07 17:10 | 60.08517 | 20.36848 | 26253 ft | 516 kts | 75° |
| 2026-05-07 17:10 | 60.09322 | 20.43871 | 26495 ft | 519 kts | 75° |
| 2026-05-07 17:10 | 60.10130 | 20.50933 | 26746 ft | 521 kts | 75° |
| 2026-05-07 17:10 | 60.10935 | 20.58018 | 26999 ft | 523 kts | 75° |
| 2026-05-07 17:11 | 60.11738 | 20.65134 | 27126 ft | 524 kts | 75° |
| 2026-05-07 17:11 | 60.12537 | 20.72259 | 27142 ft | 524 kts | 75° |
| 2026-05-07 17:11 | 60.13330 | 20.79388 | 27140 ft | 524 kts | 76° |
| 2026-05-07 17:11 | 60.14117 | 20.86517 | 27140 ft | 524 kts | 76° |
| 2026-05-07 17:12 | 60.14904 | 20.93653 | 27140 ft | 524 kts | 76° |
| 2026-05-07 17:12 | 60.15677 | 21.00663 | 27138 ft | 524 kts | 76° |
| 2026-05-07 17:12 | 60.16380 | 21.07070 | 27138 ft | 524 kts | 76° |
| 2026-05-07 17:12 | 60.17158 | 21.14215 | 27125 ft | 524 kts | 76° |
| 2026-05-07 17:13 | 60.17930 | 21.21362 | 27140 ft | 524 kts | 76° |
| 2026-05-07 17:13 | 60.18698 | 21.28526 | 27137 ft | 524 kts | 76° |
| 2026-05-07 17:13 | 60.19459 | 21.35690 | 27162 ft | 524 kts | 76° |
| 2026-05-07 17:13 | 60.20220 | 21.42859 | 27074 ft | 526 kts | 76° |
| 2026-05-07 17:14 | 60.20986 | 21.50069 | 27148 ft | 528 kts | 76° |
| 2026-05-07 17:14 | 60.21748 | 21.57288 | 27132 ft | 528 kts | 76° |
| 2026-05-07 17:14 | 60.22505 | 21.64518 | 27130 ft | 528 kts | 76° |
| 2026-05-07 17:14 | 60.23254 | 21.71736 | 27128 ft | 528 kts | 77° |
| 2026-05-07 17:15 | 60.24003 | 21.78967 | 27133 ft | 528 kts | 77° |
| 2026-05-07 17:15 | 60.24752 | 21.86201 | 27133 ft | 528 kts | 77° |
| 2026-05-07 17:15 | 60.25496 | 21.93411 | 26721 ft | 523 kts | 77° |
| 2026-05-07 17:15 | 60.26228 | 22.00551 | 25962 ft | 517 kts | 77° |
| 2026-05-07 17:16 | 60.26946 | 22.07614 | 25226 ft | 512 kts | 77° |
| 2026-05-07 17:16 | 60.27650 | 22.14604 | 24516 ft | 507 kts | 77° |
| 2026-05-07 17:16 | 60.28344 | 22.21537 | 23846 ft | 503 kts | 77° |
| 2026-05-07 17:16 | 60.29030 | 22.28413 | 23110 ft | 498 kts | 77° |
| 2026-05-07 17:17 | 60.29706 | 22.35226 | 22426 ft | 492 kts | 77° |
| 2026-05-07 17:17 | 60.30370 | 22.41951 | 21797 ft | 486 kts | 77° |
| 2026-05-07 17:17 | 60.31023 | 22.48604 | 21178 ft | 481 kts | 77° |
| 2026-05-07 17:17 | 60.31664 | 22.55182 | 20604 ft | 475 kts | 78° |
| 2026-05-07 17:18 | 60.32284 | 22.61621 | 19994 ft | 471 kts | 78° |
| 2026-05-07 17:18 | 60.32902 | 22.68071 | 19412 ft | 466 kts | 77° |
| 2026-05-07 17:18 | 60.33514 | 22.74456 | 18834 ft | 461 kts | 78° |
| 2026-05-07 17:18 | 60.34115 | 22.80773 | 18248 ft | 456 kts | 78° |
| 2026-05-07 17:19 | 60.34708 | 22.87028 | 17626 ft | 451 kts | 78° |
| 2026-05-07 17:19 | 60.35292 | 22.93220 | 17025 ft | 446 kts | 78° |
| 2026-05-07 17:19 | 60.35866 | 22.99338 | 16454 ft | 441 kts | 78° |
| 2026-05-07 17:19 | 60.36431 | 23.05383 | 15955 ft | 434 kts | 78° |
| 2026-05-07 17:20 | 60.36970 | 23.11207 | 15527 ft | 412 kts | 78° |
| 2026-05-07 17:20 | 60.37487 | 23.16838 | 14824 ft | 406 kts | 78° |
| 2026-05-07 17:20 | 60.37998 | 23.22406 | 14428 ft | 400 kts | 78° |
| 2026-05-07 17:20 | 60.38500 | 23.27903 | 14007 ft | 396 kts | 78° |
| 2026-05-07 17:21 | 60.38997 | 23.33344 | 13534 ft | 392 kts | 78° |
| 2026-05-07 17:21 | 60.39488 | 23.38725 | 13071 ft | 387 kts | 78° |
| 2026-05-07 17:21 | 60.39969 | 23.44045 | 12610 ft | 382 kts | 78° |
| 2026-05-07 17:21 | 60.40438 | 23.49289 | 12156 ft | 377 kts | 78° |
| 2026-05-07 17:22 | 60.40898 | 23.54470 | 11693 ft | 371 kts | 78° |
| 2026-05-07 17:22 | 60.41350 | 23.59574 | 11244 ft | 366 kts | 78° |
| 2026-05-07 17:22 | 60.41794 | 23.64601 | 10793 ft | 361 kts | 78° |
| 2026-05-07 17:22 | 60.42231 | 23.69562 | 10375 ft | 355 kts | 79° |
| 2026-05-07 17:23 | 60.42659 | 23.74450 | 10104 ft | 351 kts | 79° |
| 2026-05-07 17:23 | 60.43081 | 23.79315 | 10089 ft | 350 kts | 79° |
| 2026-05-07 17:23 | 60.43503 | 23.84173 | 10092 ft | 351 kts | 79° |
| 2026-05-07 17:23 | 60.43916 | 23.89047 | 10087 ft | 351 kts | 80° |
| 2026-05-07 17:24 | 60.44248 | 23.93853 | 10051 ft | 336 kts | 82° |
| 2026-05-07 17:24 | 60.44506 | 23.98372 | 9914 ft | 311 kts | 83° |
| 2026-05-07 17:24 | 60.44727 | 24.02594 | 9575 ft | 295 kts | 83° |
| 2026-05-07 17:24 | 60.44942 | 24.06699 | 9108 ft | 291 kts | 83° |
| 2026-05-07 17:25 | 60.45158 | 24.10751 | 8761 ft | 288 kts | 83° |
| 2026-05-07 17:25 | 60.45376 | 24.14783 | 8350 ft | 287 kts | 83° |
| 2026-05-07 17:25 | 60.45596 | 24.18785 | 8002 ft | 284 kts | 83° |
| 2026-05-07 17:25 | 60.45817 | 24.22747 | 7651 ft | 282 kts | 83° |
| 2026-05-07 17:26 | 60.46033 | 24.26624 | 7268 ft | 281 kts | 82° |
| 2026-05-07 17:26 | 60.46249 | 24.30535 | 6916 ft | 278 kts | 83° |
| 2026-05-07 17:26 | 60.46462 | 24.34404 | 6581 ft | 275 kts | 81° |
| 2026-05-07 17:26 | 60.46672 | 24.38240 | 6202 ft | 273 kts | 81° |
| 2026-05-07 17:27 | 60.46883 | 24.42054 | 5800 ft | 271 kts | 81° |
| 2026-05-07 17:27 | 60.47052 | 24.45849 | 5423 ft | 271 kts | 89° |
| 2026-05-07 17:27 | 60.46919 | 24.49661 | 5292 ft | 272 kts | 92° |
| 2026-05-07 17:27 | 60.46778 | 24.53493 | 5232 ft | 272 kts | 92° |
| 2026-05-07 17:28 | 60.46640 | 24.57318 | 5131 ft | 271 kts | 92° |
| 2026-05-07 17:28 | 60.46501 | 24.61120 | 4961 ft | 270 kts | 92° |
| 2026-05-07 17:28 | 60.46357 | 24.64903 | 4512 ft | 269 kts | 92° |
| 2026-05-07 17:28 | 60.46210 | 24.68691 | 4072 ft | 269 kts | 92° |
| 2026-05-07 17:29 | 60.46065 | 24.72428 | 3804 ft | 259 kts | 93° |
| 2026-05-07 17:29 | 60.45926 | 24.75970 | 3428 ft | 248 kts | 94° |
| 2026-05-07 17:29 | 60.45729 | 24.79440 | 3130 ft | 247 kts | 104° |
| 2026-05-07 17:29 | 60.45049 | 24.82629 | 2898 ft | 248 kts | 126° |
| 2026-05-07 17:30 | 60.43883 | 24.85123 | 2618 ft | 241 kts | 147° |
| 2026-05-07 17:30 | 60.42446 | 24.86749 | 2309 ft | 231 kts | 156° |
| 2026-05-07 17:30 | 60.41061 | 24.88177 | 2007 ft | 217 kts | 156° |
| 2026-05-07 17:30 | 60.39752 | 24.89527 | 1717 ft | 206 kts | 155° |
| 2026-05-07 17:31 | 60.38511 | 24.90807 | 1441 ft | 192 kts | 155° |
| 2026-05-07 17:31 | 60.37385 | 24.91969 | 1212 ft | 172 kts | 156° |
| 2026-05-07 17:31 | 60.36365 | 24.93019 | 960 ft | 159 kts | 156° |
| 2026-05-07 17:31 | 60.35402 | 24.94009 | 738 ft | 153 kts | 155° |
| 2026-05-07 17:32 | 60.34488 | 24.94951 | 535 ft | 141 kts | 154° |
| 2026-05-07 17:32 | 60.33638 | 24.95853 | 348 ft | 136 kts | 155° |
| 2026-05-07 17:32 | 60.32802 | 24.96687 | 192 ft | 132 kts | 156° |
| 2026-05-07 17:32 | 60.32313 | 24.97184 | 159 ft | 96 kts | 153° |
| 2026-05-07 17:33 | 60.31772 | 24.97725 | 152 ft | 21 kts | 154° |
| 2026-05-07 17:33 | 60.31682 | 24.97645 | 154 ft | 9 kts | 227° |
| 2026-05-07 17:33 | 60.31668 | 24.97605 | 156 ft | 0 kts | 237° |
| 2026-05-07 17:33 | 60.31666 | 24.97599 | 157 ft | 3 kts | 239° |
| 2026-05-07 17:34 | 60.31660 | 24.97575 | 159 ft | 1 kts | 242° |
| 2026-05-07 17:34 | 60.31634 | 24.97438 | 165 ft | 14 kts | 271° |
| 2026-05-07 17:34 | 60.31698 | 24.97323 | 166 ft | 12 kts | 333° |
| 2026-05-07 17:34 | 60.31784 | 24.97234 | 166 ft | 16 kts | 333° |
| 2026-05-07 17:35 | 60.31847 | 24.97121 | 167 ft | 10 kts | 267° |
| 2026-05-07 17:35 | 60.31828 | 24.97041 | 167 ft | 0 kts | 242° |